Time;durP1;ratioP1;P1;durP2;ratioP2;P2;SDS_P1;SDS_P2;PMS_P1;PMS_P2;Temp;Humidity;BMP_temperature;BMP_pressure;BME280_temperature;BME280_humidity;BME280_pressure;Samples;Min_cycle;Max_cycle;Signal;HPM_P1;HPM_P2
2023/03/29 00:09:54;;;;;;;;;;;;;;;7.70;69.19;101891.09;20491113;28;20001;-61
2023/03/29 00:20:16;;;;;;;;;;;;;;;7.75;68.89;101868.75;20498503;28;19926;-61
2023/03/29 00:30:37;;;;;;;;;;;;;;;7.79;70.56;101867.03;20495036;28;19923;-61
2023/03/29 00:40:59;;;;;;;;;;;;;;;7.82;69.05;101856.75;20483460;28;19922;-61
2023/03/29 00:51:22;;;;;;;;;;;;;;;7.79;70.22;101841.28;20496950;28;20314;-61
2023/03/29 01:01:53;;;;;;;;;;;;;;;7.73;69.27;101837.00;21459479;23;19925;-58
2023/03/29 01:12:18;;;;;;;;;;;;;;;7.65;68.87;101822.44;20484197;28;19923;-57
2023/03/29 01:22:50;;;;;;;;;;;;;;;7.56;69.60;101812.16;20497122;28;19938;-58
2023/03/29 01:33:20;;;;;;;;;;;;;;;7.48;69.84;101790.69;20470404;28;19978;-59
2023/03/29 01:43:49;;;;;;;;;;;;;;;7.34;69.68;101788.16;20499095;28;19934;-57
2023/03/29 01:54:16;;;;;;;;;;;;;;;7.25;71.48;101777.00;20504439;28;19930;-57
2023/03/29 02:04:40;;;;;;;;;;;;;;;7.16;71.69;101756.44;20510140;28;19962;-57
2023/03/29 02:15:05;;;;;;;;;;;;;;;7.10;71.59;101732.41;20498057;28;19922;-58
2023/03/29 02:25:28;;;;;;;;;;;;;;;7.12;73.37;101735.00;20497161;28;19923;-57
2023/03/29 02:36:22;;;;;;;;;;;;;;;7.13;72.78;101726.41;20495590;28;19937;-57
2023/03/29 02:46:45;;;;;;;;;;;;;;;7.17;74.00;101719.53;20480824;28;19985;-59
2023/03/29 02:57:06;;;;;;;;;;;;;;;7.14;73.82;101692.94;20501833;28;19928;-58
2023/03/29 03:07:28;;;;;;;;;;;;;;;7.05;74.33;101687.81;20501415;28;19922;-58
2023/03/29 03:17:49;;;;;;;;;;;;;;;7.06;75.16;101674.09;20505826;28;19930;-59
2023/03/29 03:28:11;;;;;;;;;;;;;;;7.07;74.98;101652.66;20490715;28;19922;-58
2023/03/29 03:38:33;;;;;;;;;;;;;;;7.09;75.68;101653.50;20487120;28;19978;-59
2023/03/29 03:48:55;;;;;;;;;;;;;;;7.11;75.22;101638.06;20504959;28;20428;-59
2023/03/29 03:59:16;;;;;;;;;;;;;;;7.11;75.94;101640.63;20497010;28;19969;-59
2023/03/29 04:09:38;;;;;;;;;;;;;;;7.00;76.50;101638.09;20500637;28;20668;-58
2023/03/29 04:20:01;;;;;;;;;;;;;;;7.03;76.56;101629.50;20498781;28;19935;-58
2023/03/29 04:30:22;;;;;;;;;;;;;;;7.00;76.82;101627.78;20512953;28;19933;-59
2023/03/29 04:40:43;;;;;;;;;;;;;;;6.95;76.46;101619.25;20500438;28;20070;-57
2023/03/29 04:51:05;;;;;;;;;;;;;;;7.00;77.32;101606.34;20487257;28;20290;-59
2023/03/29 05:01:27;;;;;;;;;;;;;;;7.04;77.71;101597.75;20497014;28;20353;-58
2023/03/29 05:11:49;;;;;;;;;;;;;;;7.03;77.31;101596.91;20501466;28;19981;-59
2023/03/29 05:22:10;;;;;;;;;;;;;;;7.05;76.97;101586.59;20489320;28;19926;-59
2023/03/29 05:32:32;;;;;;;;;;;;;;;7.04;77.08;101587.47;20469119;28;19922;-58
2023/03/29 05:42:53;;;;;;;;;;;;;;;7.07;77.37;101588.31;20493601;28;19993;-58
2023/03/29 05:53:15;;;;;;;;;;;;;;;7.09;77.31;101585.72;20496724;28;19922;-57
2023/03/29 06:03:37;;;;;;;;;;;;;;;7.10;77.96;101583.16;20498098;28;19993;-57
2023/03/29 06:13:59;;;;;;;;;;;;;;;7.22;77.58;101581.38;20497487;28;19930;-59
2023/03/29 06:24:21;;;;;;;;;;;;;;;7.33;76.71;101580.50;20486720;28;19958;-59
2023/03/29 06:34:42;;;;;;;;;;;;;;;7.38;76.75;101577.91;20504575;28;19922;-59
2023/03/29 06:45:04;;;;;;;;;;;;;;;7.50;77.54;101570.09;20513945;28;20057;-60
2023/03/29 06:55:26;;;;;;;;;;;;;;;7.58;76.50;101564.03;20496860;28;19922;-58
2023/03/29 07:05:49;;;;;;;;;;;;;;;7.64;77.15;101582.03;20490295;28;19930;-58
2023/03/29 07:16:11;;;;;;;;;;;;;;;7.60;76.98;101587.22;20513926;28;19993;-60
2023/03/29 07:26:33;;;;;;;;;;;;;;;7.60;77.39;101600.09;20502694;28;19933;-60
2023/03/29 07:36:54;;;;;;;;;;;;;;;7.55;78.70;101591.53;20491450;28;19930;-58
2023/03/29 07:47:16;;;;;;;;;;;;;;;7.51;79.50;101589.84;20499947;28;19958;-59
2023/03/29 07:57:38;;;;;;;;;;;;;;;7.64;79.99;101582.03;20482285;28;19927;-59
2023/03/29 08:07:59;;;;;;;;;;;;;;;7.77;79.46;101578.53;20499303;28;19934;-59
2023/03/29 08:18:21;;;;;;;;;;;;;;;7.84;80.16;101576.75;20485884;28;19985;-58
2023/03/29 08:28:43;;;;;;;;;;;;;;;7.96;80.21;101566.38;20492039;28;20412;-58
2023/03/29 08:39:04;;;;;;;;;;;;;;;8.11;81.27;101564.50;20486985;28;19930;-58
2023/03/29 08:49:27;;;;;;;;;;;;;;;8.11;82.12;101554.19;20494454;28;19923;-59
2023/03/29 08:59:50;;;;;;;;;;;;;;;8.20;82.12;101558.44;20487438;28;20342;-58
2023/03/29 09:10:17;;;;;;;;;;;;;;;8.44;81.77;101552.25;20487943;28;19958;-60
2023/03/29 09:20:46;;;;;;;;;;;;;;;8.61;82.00;101556.34;20490715;28;19922;-58
2023/03/29 09:31:12;;;;;;;;;;;;;;;8.79;81.15;101550.16;20490239;28;19926;-59
2023/03/29 09:41:42;;;;;;;;;;;;;;;8.83;81.10;101538.91;20488898;28;20278;-58
2023/03/29 09:52:07;;;;;;;;;;;;;;;9.05;80.57;101537.78;20487747;28;20300;-59
2023/03/29 10:02:30;;;;;;;;;;;;;;;9.27;80.73;101528.03;20489461;28;19922;-59
2023/03/29 10:12:53;;;;;;;;;;;;;;;9.51;79.83;101496.69;20490737;28;19934;-60
2023/03/29 10:23:17;;;;;;;;;;;;;;;9.70;79.25;101503.28;20498007;28;19922;-59
2023/03/29 10:33:38;;;;;;;;;;;;;;;9.89;79.51;101487.47;20520032;28;20348;-59
2023/03/29 10:44:00;;;;;;;;;;;;;;;10.13;79.01;101483.63;20505830;28;20468;-59
2023/03/29 10:54:23;;;;;;;;;;;;;;;10.38;78.80;101479.75;20499946;28;19934;-59
2023/03/29 11:04:44;;;;;;;;;;;;;;;10.73;77.98;101466.09;20504368;28;19937;-58
2023/03/29 11:15:09;;;;;;;;;;;;;;;11.20;76.29;101462.50;20504916;28;20006;-60
2023/03/29 11:25:49;;;;;;;;;;;;;;;11.66;76.20;101465.75;20505696;28;19945;-59
2023/03/29 11:36:19;;;;;;;;;;;;;;;11.81;75.61;101467.97;20520519;28;19960;-59
2023/03/29 11:46:45;;;;;;;;;;;;;;;11.97;75.49;101470.16;20493189;28;20345;-58
2023/03/29 11:57:13;;;;;;;;;;;;;;;12.00;75.70;101459.69;20495007;28;20396;-59
2023/03/29 12:07:36;;;;;;;;;;;;;;;12.08;75.67;101452.56;20496753;28;19926;-58
2023/03/29 12:18:12;;;;;;;;;;;;;;;12.15;76.07;101440.28;20501180;28;19926;-58
2023/03/29 12:28:52;;;;;;;;;;;;;;;12.32;75.85;101419.06;20504860;28;20439;-59
2023/03/29 12:39:15;;;;;;;;;;;;;;;12.56;75.51;101414.03;20498110;28;19922;-59
2023/03/29 12:49:37;;;;;;;;;;;;;;;12.84;74.80;101404.53;20504793;28;19944;-59
2023/03/29 13:00:09;;;;;;;;;;;;;;;12.83;74.51;101382.06;20478242;28;20700;-60
2023/03/29 13:10:33;;;;;;;;;;;;;;;13.04;74.49;101389.22;20486322;28;19926;-58
2023/03/29 13:21:04;;;;;;;;;;;;;;;13.20;73.60;101380.94;20510049;28;20270;-58
2023/03/29 13:31:26;;;;;;;;;;;;;;;13.38;73.41;101369.97;20501390;28;19996;-58
2023/03/29 13:41:49;;;;;;;;;;;;;;;13.61;72.80;101367.44;20491770;28;20287;-59
2023/03/29 13:52:15;;;;;;;;;;;;;;;13.92;72.28;101348.13;20524616;28;19926;-60
2023/03/29 14:02:42;;;;;;;;;;;;;;;14.00;72.12;101353.06;20517165;28;20284;-60
2023/03/29 14:13:04;;;;;;;;;;;;;;;14.00;72.88;101340.03;20526970;28;20389;-60
2023/03/29 14:23:30;;;;;;;;;;;;;;;13.90;72.38;101338.66;20499794;28;19934;-60
2023/03/29 14:33:52;;;;;;;;;;;;;;;13.82;73.66;101330.28;20498974;28;19930;-60
2023/03/29 14:44:14;;;;;;;;;;;;;;;13.81;72.88;101311.22;20525269;28;20036;-60
2023/03/29 14:54:35;;;;;;;;;;;;;;;13.86;72.72;101314.50;20512946;28;19954;-58
2023/03/29 15:04:58;;;;;;;;;;;;;;;13.79;73.01;101297.41;20494939;28;20393;-59
2023/03/29 15:15:19;;;;;;;;;;;;;;;13.80;73.38;101293.94;20494059;28;20195;-60
2023/03/29 15:25:48;;;;;;;;;;;;;;;13.81;73.60;101298.22;20506778;28;19926;-59
2023/03/29 15:36:10;;;;;;;;;;;;;;;13.77;74.48;101285.41;20508684;28;19925;-60
2023/03/29 15:46:32;;;;;;;;;;;;;;;13.78;75.39;101281.88;20500001;28;20036;-59
2023/03/29 15:56:55;;;;;;;;;;;;;;;13.76;74.85;101286.28;20499661;28;20002;-57
2023/03/29 16:07:17;;;;;;;;;;;;;;;13.55;75.29;101284.44;20506690;28;19929;-57
2023/03/29 16:17:38;;;;;;;;;;;;;;;13.37;75.30;101270.31;20501968;28;19922;-57
2023/03/29 16:28:00;;;;;;;;;;;;;;;13.31;76.02;101238.50;20491439;28;19948;-57
2023/03/29 16:38:23;;;;;;;;;;;;;;;13.28;76.43;101233.38;20492858;28;19926;-58
2023/03/29 16:48:45;;;;;;;;;;;;;;;13.15;76.88;101206.97;20483182;28;19923;-59
2023/03/29 16:59:08;;;;;;;;;;;;;;;13.07;76.96;101209.84;20500843;28;20033;-59
2023/03/29 17:09:32;;;;;;;;;;;;;;;12.95;77.40;101225.81;20496010;28;20001;-59
2023/03/29 17:19:54;;;;;;;;;;;;;;;12.86;78.11;101233.91;20494030;28;19949;-59
2023/03/29 17:30:16;;;;;;;;;;;;;;;12.81;78.33;101234.97;20480448;28;20400;-58
2023/03/29 17:40:38;;;;;;;;;;;;;;;12.78;79.01;101228.09;20465519;28;19973;-59
2023/03/29 17:50:59;;;;;;;;;;;;;;;12.71;79.14;101223.19;20484464;28;20397;-58
2023/03/29 18:01:21;;;;;;;;;;;;;;;12.61;79.48;101220.03;20481290;28;19926;-60
2023/03/29 18:11:42;;;;;;;;;;;;;;;12.54;80.69;101208.16;20486147;28;20467;-60
2023/03/29 18:22:03;;;;;;;;;;;;;;;12.51;81.01;101187.47;20478231;28;19986;-60
2023/03/29 18:32:25;;;;;;;;;;;;;;;12.54;80.54;101195.19;20493634;28;19925;-60
2023/03/29 18:42:46;;;;;;;;;;;;;;;12.53;80.65;101201.25;20495876;28;19930;-58
2023/03/29 18:53:08;;;;;;;;;;;;;;;12.52;81.40;101209.09;20506435;28;19958;-59
2023/03/29 19:03:30;;;;;;;;;;;;;;;12.42;82.23;101187.75;20510511;28;19922;-59
2023/03/29 19:13:52;;;;;;;;;;;;;;;12.34;83.38;101162.97;20481109;28;19926;-59
2023/03/29 19:24:14;;;;;;;;;;;;;;;12.32;85.12;101163.00;20508310;28;20377;-60
2023/03/29 19:34:38;;;;;;;;;;;;;;;12.27;85.67;101157.09;20476581;28;20281;-60
2023/03/29 19:44:59;;;;;;;;;;;;;;;12.23;86.00;101145.16;20498239;28;19927;-60
2023/03/29 19:55:22;;;;;;;;;;;;;;;12.17;87.04;101134.09;20485099;28;19922;-59
2023/03/29 20:05:45;;;;;;;;;;;;;;;12.11;87.14;101135.13;20483174;28;19961;-60
2023/03/29 20:16:07;;;;;;;;;;;;;;;12.11;87.96;101130.81;20484824;28;19932;-59
2023/03/29 20:26:29;;;;;;;;;;;;;;;11.97;88.63;101098.41;20488328;28;20285;-59
2023/03/29 20:36:53;;;;;;;;;;;;;;;11.89;89.05;101075.31;20466299;28;19980;-59
2023/03/29 20:47:16;;;;;;;;;;;;;;;11.89;88.54;101097.78;20482472;28;19932;-58
2023/03/29 20:57:39;;;;;;;;;;;;;;;11.85;89.71;101078.03;20472944;28;19926;-58
2023/03/29 21:08:01;;;;;;;;;;;;;;;11.78;90.78;101042.81;20454421;28;19969;-59
2023/03/29 21:18:22;;;;;;;;;;;;;;;11.78;90.25;101022.09;20493504;28;19922;-59
2023/03/29 21:28:44;;;;;;;;;;;;;;;11.74;90.16;100991.97;20495642;28;19959;-59
2023/03/29 21:39:06;;;;;;;;;;;;;;;11.70;93.01;100974.84;20502652;28;20463;-59
2023/03/29 21:49:27;;;;;;;;;;;;;;;11.64;91.29;100941.31;20485626;28;19922;-59
2023/03/29 21:59:50;;;;;;;;;;;;;;;11.63;90.25;100934.44;20481724;28;19926;-60
2023/03/29 22:10:11;;;;;;;;;;;;;;;11.64;91.90;100915.38;20492417;28;20064;-60
2023/03/29 22:20:33;;;;;;;;;;;;;;;11.64;91.67;100894.66;20493741;28;20329;-58
2023/03/29 22:30:54;;;;;;;;;;;;;;;11.64;90.41;100873.91;20509404;28;20330;-59
2023/03/29 22:41:16;;;;;;;;;;;;;;;11.63;90.29;100864.47;20509190;28;19931;-59
2023/03/29 22:51:37;;;;;;;;;;;;;;;11.58;92.21;100843.00;20515718;28;19926;-61
2023/03/29 23:01:59;;;;;;;;;;;;;;;11.49;90.80;100827.78;20510264;28;19926;-59
2023/03/29 23:12:22;;;;;;;;;;;;;;;11.52;90.46;100820.75;20505167;28;19966;-59
2023/03/29 23:22:44;;;;;;;;;;;;;;;11.58;90.38;100822.28;20507774;28;19926;-60
2023/03/29 23:33:06;;;;;;;;;;;;;;;11.61;90.69;100809.22;20491933;28;19927;-60
2023/03/29 23:43:31;;;;;;;;;;;;;;;11.60;90.17;100789.38;20502546;28;19994;-59
2023/03/29 23:53:54;;;;;;;;;;;;;;;11.64;89.33;100760.72;20501390;28;20326;-60
